sensor_id;sensor_type;location;lat;lon;timestamp;temperature;humidity
1678;DHT22;6034;46.864;15.216;2022-07-29T05:00:29;22.80;99.90
1678;DHT22;6034;46.864;15.216;2022-07-29T05:02:56;22.80;99.90
1678;DHT22;6034;46.864;15.216;2022-07-29T05:05:23;22.90;99.90
1678;DHT22;6034;46.864;15.216;2022-07-29T05:07:50;22.90;99.90
1678;DHT22;6034;46.864;15.216;2022-07-29T05:10:17;23.00;99.90
1678;DHT22;6034;46.864;15.216;2022-07-29T05:12:44;23.00;99.90
1678;DHT22;6034;46.864;15.216;2022-07-29T05:15:11;23.00;99.90
1678;DHT22;6034;46.864;15.216;2022-07-29T05:17:40;22.80;99.90
1678;DHT22;6034;46.864;15.216;2022-07-29T05:20:07;22.80;99.90
1678;DHT22;6034;46.864;15.216;2022-07-29T05:22:34;22.80;99.90
1678;DHT22;6034;46.864;15.216;2022-07-29T05:25:01;23.00;99.90
1678;DHT22;6034;46.864;15.216;2022-07-29T05:27:28;22.90;99.90
1678;DHT22;6034;46.864;15.216;2022-07-29T05:29:54;22.80;99.90
1678;DHT22;6034;46.864;15.216;2022-07-29T05:32:27;22.50;99.90
1678;DHT22;6034;46.864;15.216;2022-07-29T05:34:55;22.50;99.90
1678;DHT22;6034;46.864;15.216;2022-07-29T05:37:22;22.60;99.90
1678;DHT22;6034;46.864;15.216;2022-07-29T05:39:49;22.80;99.90
1678;DHT22;6034;46.864;15.216;2022-07-29T05:42:16;22.90;99.90
1678;DHT22;6034;46.864;15.216;2022-07-29T05:44:43;23.00;99.90
1678;DHT22;6034;46.864;15.216;2022-07-29T05:47:10;23.20;99.90
1678;DHT22;6034;46.864;15.216;2022-07-29T05:49:38;23.20;99.90
1678;DHT22;6034;46.864;15.216;2022-07-29T05:52:06;23.10;99.90
1678;DHT22;6034;46.864;15.216;2022-07-29T05:54:34;23.10;99.90
1678;DHT22;6034;46.864;15.216;2022-07-29T05:57:01;23.10;99.90
1678;DHT22;6034;46.864;15.216;2022-07-29T05:59:28;22.80;99.90
1678;DHT22;6034;46.864;15.216;2022-07-29T06:01:55;23.00;99.90
1678;DHT22;6034;46.864;15.216;2022-07-29T06:04:22;22.80;99.90
1678;DHT22;6034;46.864;15.216;2022-07-29T06:06:49;23.00;99.90
1678;DHT22;6034;46.864;15.216;2022-07-29T06:09:18;23.10;99.90
1678;DHT22;6034;46.864;15.216;2022-07-29T06:11:45;23.00;99.90
1678;DHT22;6034;46.864;15.216;2022-07-29T06:14:12;23.00;99.90
1678;DHT22;6034;46.864;15.216;2022-07-29T06:16:39;23.30;99.90
1678;DHT22;6034;46.864;15.216;2022-07-29T06:19:05;23.30;99.90
1678;DHT22;6034;46.864;15.216;2022-07-29T06:21:32;23.10;99.90
1678;DHT22;6034;46.864;15.216;2022-07-29T06:24:00;22.90;99.90
1678;DHT22;6034;46.864;15.216;2022-07-29T06:26:29;23.00;99.90
1678;DHT22;6034;46.864;15.216;2022-07-29T06:28:56;23.10;99.90
1678;DHT22;6034;46.864;15.216;2022-07-29T06:31:22;23.30;99.90
1678;DHT22;6034;46.864;15.216;2022-07-29T06:33:49;23.10;99.90
1678;DHT22;6034;46.864;15.216;2022-07-29T06:36:16;23.60;99.90
1678;DHT22;6034;46.864;15.216;2022-07-29T06:38:43;23.70;99.90
1678;DHT22;6034;46.864;15.216;2022-07-29T06:41:10;23.70;99.90
1678;DHT22;6034;46.864;15.216;2022-07-29T06:43:39;23.80;99.90
1678;DHT22;6034;46.864;15.216;2022-07-29T06:46:07;23.90;99.90
1678;DHT22;6034;46.864;15.216;2022-07-29T06:48:35;23.80;99.90
1678;DHT22;6034;46.864;15.216;2022-07-29T06:51:02;24.30;99.90
1678;DHT22;6034;46.864;15.216;2022-07-29T06:53:29;24.40;99.90
1678;DHT22;6034;46.864;15.216;2022-07-29T06:55:56;24.50;99.90
1678;DHT22;6034;46.864;15.216;2022-07-29T06:58:25;24.40;99.90
1678;DHT22;6034;46.864;15.216;2022-07-29T07:00:53;24.70;99.90
1678;DHT22;6034;46.864;15.216;2022-07-29T07:03:21;25.00;99.90
1678;DHT22;6034;46.864;15.216;2022-07-29T07:05:48;25.00;99.90
1678;DHT22;6034;46.864;15.216;2022-07-29T07:08:15;25.30;99.90
1678;DHT22;6034;46.864;15.216;2022-07-29T07:10:42;25.50;99.90
1678;DHT22;6034;46.864;15.216;2022-07-29T07:13:09;25.30;99.90
1678;DHT22;6034;46.864;15.216;2022-07-29T07:15:36;25.40;99.90
1678;DHT22;6034;46.864;15.216;2022-07-29T07:18:05;25.00;99.90
1678;DHT22;6034;46.864;15.216;2022-07-29T07:20:32;24.60;99.90
1678;DHT22;6034;46.864;15.216;2022-07-29T07:22:59;25.20;99.90
1678;DHT22;6034;46.864;15.216;2022-07-29T07:25:26;25.10;99.90
1678;DHT22;6034;46.864;15.216;2022-07-29T07:27:53;25.40;99.90
1678;DHT22;6034;46.864;15.216;2022-07-29T07:30:20;25.70;99.90
1678;DHT22;6034;46.864;15.216;2022-07-29T07:32:47;25.70;99.90
1678;DHT22;6034;46.864;15.216;2022-07-29T07:35:16;25.90;99.90
1678;DHT22;6034;46.864;15.216;2022-07-29T07:37:43;25.90;99.90
1678;DHT22;6034;46.864;15.216;2022-07-29T07:40:10;25.50;99.90
1678;DHT22;6034;46.864;15.216;2022-07-29T07:42:38;25.70;99.90
1678;DHT22;6034;46.864;15.216;2022-07-29T07:45:05;25.60;99.90
1678;DHT22;6034;46.864;15.216;2022-07-29T07:47:34;25.40;99.90
1678;DHT22;6034;46.864;15.216;2022-07-29T07:50:02;25.80;99.90
1678;DHT22;6034;46.864;15.216;2022-07-29T07:52:30;26.00;99.90
1678;DHT22;6034;46.864;15.216;2022-07-29T07:54:57;25.80;99.90
1678;DHT22;6034;46.864;15.216;2022-07-29T07:57:24;25.70;99.90
1678;DHT22;6034;46.864;15.216;2022-07-29T07:59:51;25.90;99.90
1678;DHT22;6034;46.864;15.216;2022-07-29T08:02:18;25.90;99.90
1678;DHT22;6034;46.864;15.216;2022-07-29T08:04:46;25.90;99.90
1678;DHT22;6034;46.864;15.216;2022-07-29T08:07:13;25.90;99.90
1678;DHT22;6034;46.864;15.216;2022-07-29T08:09:41;25.80;99.90
1678;DHT22;6034;46.864;15.216;2022-07-29T08:12:09;25.80;99.90
1678;DHT22;6034;46.864;15.216;2022-07-29T08:14:36;25.70;99.90
1678;DHT22;6034;46.864;15.216;2022-07-29T08:17:03;25.60;99.90
1678;DHT22;6034;46.864;15.216;2022-07-29T08:19:31;25.70;99.90
1678;DHT22;6034;46.864;15.216;2022-07-29T08:21:58;25.60;99.90
1678;DHT22;6034;46.864;15.216;2022-07-29T08:24:25;25.70;99.90
1678;DHT22;6034;46.864;15.216;2022-07-29T08:27:19;25.70;99.90
1678;DHT22;6034;46.864;15.216;2022-07-29T08:29:48;25.70;99.90
1678;DHT22;6034;46.864;15.216;2022-07-29T08:32:15;25.70;99.90
1678;DHT22;6034;46.864;15.216;2022-07-29T08:34:42;25.70;99.90
1678;DHT22;6034;46.864;15.216;2022-07-29T08:37:11;25.70;99.90
1678;DHT22;6034;46.864;15.216;2022-07-29T08:39:39;25.70;99.90
1678;DHT22;6034;46.864;15.216;2022-07-29T08:42:06;25.70;99.90
1678;DHT22;6034;46.864;15.216;2022-07-29T08:44:37;25.70;99.90
1678;DHT22;6034;46.864;15.216;2022-07-29T08:47:05;25.70;99.90
1678;DHT22;6034;46.864;15.216;2022-07-29T08:49:33;25.80;99.90
1678;DHT22;6034;46.864;15.216;2022-07-29T08:52:00;25.80;99.90
1678;DHT22;6034;46.864;15.216;2022-07-29T08:54:27;25.80;99.90
1678;DHT22;6034;46.864;15.216;2022-07-29T08:56:54;25.90;99.90
1678;DHT22;6034;46.864;15.216;2022-07-29T08:59:22;26.00;99.90
1678;DHT22;6034;46.864;15.216;2022-07-29T09:01:53;26.00;99.90
1678;DHT22;6034;46.864;15.216;2022-07-29T09:04:21;26.20;99.90
1678;DHT22;6034;46.864;15.216;2022-07-29T09:06:51;26.10;99.90
1678;DHT22;6034;46.864;15.216;2022-07-29T09:09:18;26.10;99.90
1678;DHT22;6034;46.864;15.216;2022-07-29T09:11:45;26.00;99.90
1678;DHT22;6034;46.864;15.216;2022-07-29T09:14:13;25.80;99.90
1678;DHT22;6034;46.864;15.216;2022-07-29T09:16:44;26.00;99.90
1678;DHT22;6034;46.864;15.216;2022-07-29T09:19:21;25.70;99.90
1678;DHT22;6034;46.864;15.216;2022-07-29T09:21:48;25.50;99.90
1678;DHT22;6034;46.864;15.216;2022-07-29T09:24:26;25.30;99.90
1678;DHT22;6034;46.864;15.216;2022-07-29T09:26:53;25.50;99.90
1678;DHT22;6034;46.864;15.216;2022-07-29T09:29:22;25.50;99.90
1678;DHT22;6034;46.864;15.216;2022-07-29T09:31:49;25.50;99.90
1678;DHT22;6034;46.864;15.216;2022-07-29T09:34:21;25.00;99.90
1678;DHT22;6034;46.864;15.216;2022-07-29T09:36:51;25.00;99.90
1678;DHT22;6034;46.864;15.216;2022-07-29T09:39:26;25.20;99.90
1678;DHT22;6034;46.864;15.216;2022-07-29T09:41:54;25.30;99.90
1678;DHT22;6034;46.864;15.216;2022-07-29T09:44:22;25.30;99.90
1678;DHT22;6034;46.864;15.216;2022-07-29T09:46:56;25.30;99.90
1678;DHT22;6034;46.864;15.216;2022-07-29T09:49:23;25.30;99.90
1678;DHT22;6034;46.864;15.216;2022-07-29T09:52:05;25.30;99.90
1678;DHT22;6034;46.864;15.216;2022-07-29T09:54:33;25.30;99.90
1678;DHT22;6034;46.864;15.216;2022-07-29T09:57:04;25.40;99.90
1678;DHT22;6034;46.864;15.216;2022-07-29T09:59:32;25.40;99.90
1678;DHT22;6034;46.864;15.216;2022-07-29T10:01:59;25.40;99.90
1678;DHT22;6034;46.864;15.216;2022-07-29T10:04:36;25.40;99.90
1678;DHT22;6034;46.864;15.216;2022-07-29T10:07:05;25.50;99.90
1678;DHT22;6034;46.864;15.216;2022-07-29T10:09:33;25.40;99.90
1678;DHT22;6034;46.864;15.216;2022-07-29T10:12:07;25.30;99.90
1678;DHT22;6034;46.864;15.216;2022-07-29T10:14:36;25.40;99.90
1678;DHT22;6034;46.864;15.216;2022-07-29T10:17:04;25.50;99.90
1678;DHT22;6034;46.864;15.216;2022-07-29T10:19:32;25.30;99.90
1678;DHT22;6034;46.864;15.216;2022-07-29T10:21:59;25.30;99.90
1678;DHT22;6034;46.864;15.216;2022-07-29T10:24:29;25.20;99.90
1678;DHT22;6034;46.864;15.216;2022-07-29T10:26:57;25.30;99.90
1678;DHT22;6034;46.864;15.216;2022-07-29T10:29:25;25.40;99.90
1678;DHT22;6034;46.864;15.216;2022-07-29T10:31:55;25.60;99.90
1678;DHT22;6034;46.864;15.216;2022-07-29T10:34:29;25.80;99.90
1678;DHT22;6034;46.864;15.216;2022-07-29T10:37:00;25.40;99.90
1678;DHT22;6034;46.864;15.216;2022-07-29T10:39:36;25.50;99.90
1678;DHT22;6034;46.864;15.216;2022-07-29T10:42:11;25.50;99.90
1678;DHT22;6034;46.864;15.216;2022-07-29T10:44:41;25.10;99.90
1678;DHT22;6034;46.864;15.216;2022-07-29T10:47:11;25.50;99.90
1678;DHT22;6034;46.864;15.216;2022-07-29T10:49:54;25.80;99.90
1678;DHT22;6034;46.864;15.216;2022-07-29T10:52:21;25.60;99.90
1678;DHT22;6034;46.864;15.216;2022-07-29T10:54:51;25.50;99.90
1678;DHT22;6034;46.864;15.216;2022-07-29T10:57:20;25.60;99.90
1678;DHT22;6034;46.864;15.216;2022-07-29T10:59:47;25.40;99.90
1678;DHT22;6034;46.864;15.216;2022-07-29T11:05:01;26.00;99.90
1678;DHT22;6034;46.864;15.216;2022-07-29T11:07:29;25.70;99.90
1678;DHT22;6034;46.864;15.216;2022-07-29T11:12:49;26.40;99.90
1678;DHT22;6034;46.864;15.216;2022-07-29T11:15:17;26.20;99.90
1678;DHT22;6034;46.864;15.216;2022-07-29T11:18:04;26.40;99.90
1678;DHT22;6034;46.864;15.216;2022-07-29T11:20:35;26.10;99.90
1678;DHT22;6034;46.864;15.216;2022-07-29T11:23:25;26.40;99.90
1678;DHT22;6034;46.864;15.216;2022-07-29T11:28:42;26.30;99.90
1678;DHT22;6034;46.864;15.216;2022-07-29T11:31:15;26.20;99.90
1678;DHT22;6034;46.864;15.216;2022-07-29T11:33:43;26.50;99.90
1678;DHT22;6034;46.864;15.216;2022-07-29T11:36:11;26.50;99.90
1678;DHT22;6034;46.864;15.216;2022-07-29T11:38:38;26.40;99.90
1678;DHT22;6034;46.864;15.216;2022-07-29T11:41:24;26.50;99.90
1678;DHT22;6034;46.864;15.216;2022-07-29T11:43:53;26.50;99.90
1678;DHT22;6034;46.864;15.216;2022-07-29T11:49:12;26.40;99.90
1678;DHT22;6034;46.864;15.216;2022-07-29T11:51:49;26.40;99.90
1678;DHT22;6034;46.864;15.216;2022-07-29T11:54:17;26.00;99.90
1678;DHT22;6034;46.864;15.216;2022-07-29T11:56:50;26.10;99.90
1678;DHT22;6034;46.864;15.216;2022-07-29T11:59:26;26.20;99.90
1678;DHT22;6034;46.864;15.216;2022-07-29T12:01:54;26.80;99.90
1678;DHT22;6034;46.864;15.216;2022-07-29T12:04:21;25.80;99.90
1678;DHT22;6034;46.864;15.216;2022-07-29T12:06:52;25.50;99.90
1678;DHT22;6034;46.864;15.216;2022-07-29T12:09:22;25.00;99.90
1678;DHT22;6034;46.864;15.216;2022-07-29T12:11:55;25.00;99.90
1678;DHT22;6034;46.864;15.216;2022-07-29T12:14:28;25.10;99.90
1678;DHT22;6034;46.864;15.216;2022-07-29T12:16:59;24.90;99.90
1678;DHT22;6034;46.864;15.216;2022-07-29T12:19:27;24.40;99.90
1678;DHT22;6034;46.864;15.216;2022-07-29T12:21:54;24.20;99.90
1678;DHT22;6034;46.864;15.216;2022-07-29T12:24:23;24.20;99.90
1678;DHT22;6034;46.864;15.216;2022-07-29T12:26:56;23.70;99.90
1678;DHT22;6034;46.864;15.216;2022-07-29T12:29:24;23.50;99.90
1678;DHT22;6034;46.864;15.216;2022-07-29T12:31:55;23.30;99.90
1678;DHT22;6034;46.864;15.216;2022-07-29T12:34:23;23.40;99.90
1678;DHT22;6034;46.864;15.216;2022-07-29T12:36:50;23.30;99.90
1678;DHT22;6034;46.864;15.216;2022-07-29T12:39:17;23.30;99.90
1678;DHT22;6034;46.864;15.216;2022-07-29T12:41:45;23.10;99.90
1678;DHT22;6034;46.864;15.216;2022-07-29T12:44:12;23.00;99.90
1678;DHT22;6034;46.864;15.216;2022-07-29T12:46:39;23.00;99.90
1678;DHT22;6034;46.864;15.216;2022-07-29T12:49:09;22.90;99.90
1678;DHT22;6034;46.864;15.216;2022-07-29T12:51:36;23.10;99.90
1678;DHT22;6034;46.864;15.216;2022-07-29T12:54:05;23.20;99.90
1678;DHT22;6034;46.864;15.216;2022-07-29T12:56:32;23.20;99.90
1678;DHT22;6034;46.864;15.216;2022-07-29T12:58:59;23.20;99.90
1678;DHT22;6034;46.864;15.216;2022-07-29T13:01:37;23.30;99.90
1678;DHT22;6034;46.864;15.216;2022-07-29T13:04:04;23.30;99.90
1678;DHT22;6034;46.864;15.216;2022-07-29T13:06:40;23.50;99.90
1678;DHT22;6034;46.864;15.216;2022-07-29T13:09:08;23.70;99.90
1678;DHT22;6034;46.864;15.216;2022-07-29T13:11:36;24.10;99.90
1678;DHT22;6034;46.864;15.216;2022-07-29T13:14:05;24.30;99.90
1678;DHT22;6034;46.864;15.216;2022-07-29T13:16:34;24.40;99.90
1678;DHT22;6034;46.864;15.216;2022-07-29T13:19:04;24.30;99.90
1678;DHT22;6034;46.864;15.216;2022-07-29T13:21:31;24.40;99.90
1678;DHT22;6034;46.864;15.216;2022-07-29T13:24:00;24.50;99.90
1678;DHT22;6034;46.864;15.216;2022-07-29T13:26:27;24.80;99.90
1678;DHT22;6034;46.864;15.216;2022-07-29T13:28:54;25.00;99.90
1678;DHT22;6034;46.864;15.216;2022-07-29T13:31:21;25.10;99.90
1678;DHT22;6034;46.864;15.216;2022-07-29T13:33:48;25.20;99.90
1678;DHT22;6034;46.864;15.216;2022-07-29T13:36:15;25.50;99.90
1678;DHT22;6034;46.864;15.216;2022-07-29T13:38:43;25.60;99.90
1678;DHT22;6034;46.864;15.216;2022-07-29T13:43:41;25.80;99.90
1678;DHT22;6034;46.864;15.216;2022-07-29T13:46:08;25.80;99.90
1678;DHT22;6034;46.864;15.216;2022-07-29T13:48:35;25.80;99.90
1678;DHT22;6034;46.864;15.216;2022-07-29T13:51:02;25.70;99.90
1678;DHT22;6034;46.864;15.216;2022-07-29T13:53:29;25.60;99.90
1678;DHT22;6034;46.864;15.216;2022-07-29T13:55:56;25.50;99.90
1678;DHT22;6034;46.864;15.216;2022-07-29T13:58:23;25.60;99.90
1678;DHT22;6034;46.864;15.216;2022-07-29T14:00:52;25.70;99.90
1678;DHT22;6034;46.864;15.216;2022-07-29T14:03:19;25.60;99.90
1678;DHT22;6034;46.864;15.216;2022-07-29T14:05:46;25.70;99.90
1678;DHT22;6034;46.864;15.216;2022-07-29T14:08:13;26.00;99.90
1678;DHT22;6034;46.864;15.216;2022-07-29T14:10:40;25.90;99.90
1678;DHT22;6034;46.864;15.216;2022-07-29T14:13:07;25.60;99.90
1678;DHT22;6034;46.864;15.216;2022-07-29T14:15:34;25.50;99.90
1678;DHT22;6034;46.864;15.216;2022-07-29T14:18:03;25.70;99.90
1678;DHT22;6034;46.864;15.216;2022-07-29T14:20:30;25.70;99.90
1678;DHT22;6034;46.864;15.216;2022-07-29T14:22:57;25.80;99.90
1678;DHT22;6034;46.864;15.216;2022-07-29T14:25:24;25.80;99.90
1678;DHT22;6034;46.864;15.216;2022-07-29T14:27:52;25.90;99.90
1678;DHT22;6034;46.864;15.216;2022-07-29T14:30:19;25.90;99.90
1678;DHT22;6034;46.864;15.216;2022-07-29T14:32:47;25.90;99.90
1678;DHT22;6034;46.864;15.216;2022-07-29T14:35:16;26.80;99.90
1678;DHT22;6034;46.864;15.216;2022-07-29T14:37:43;26.00;99.90
1678;DHT22;6034;46.864;15.216;2022-07-29T14:40:10;26.00;99.90
1678;DHT22;6034;46.864;15.216;2022-07-29T14:42:37;25.90;99.90
1678;DHT22;6034;46.864;15.216;2022-07-29T14:45:05;26.00;99.90
1678;DHT22;6034;46.864;15.216;2022-07-29T14:47:32;25.90;99.90
1678;DHT22;6034;46.864;15.216;2022-07-29T14:49:59;26.00;99.90
1678;DHT22;6034;46.864;15.216;2022-07-29T14:52:28;25.80;99.90
1678;DHT22;6034;46.864;15.216;2022-07-29T14:54:55;25.80;99.90
1678;DHT22;6034;46.864;15.216;2022-07-29T14:57:22;25.70;99.90
1678;DHT22;6034;46.864;15.216;2022-07-29T14:59:49;25.80;99.90
1678;DHT22;6034;46.864;15.216;2022-07-29T15:02:17;25.70;99.90
1678;DHT22;6034;46.864;15.216;2022-07-29T15:04:44;25.60;99.90
1678;DHT22;6034;46.864;15.216;2022-07-29T15:07:13;25.70;99.90
1678;DHT22;6034;46.864;15.216;2022-07-29T15:09:42;25.60;99.90
1678;DHT22;6034;46.864;15.216;2022-07-29T15:12:10;25.70;99.90
1678;DHT22;6034;46.864;15.216;2022-07-29T15:14:38;25.70;99.90
1678;DHT22;6034;46.864;15.216;2022-07-29T15:17:05;25.70;99.90
1678;DHT22;6034;46.864;15.216;2022-07-29T15:19:32;25.70;99.90
1678;DHT22;6034;46.864;15.216;2022-07-29T15:21:59;25.60;99.90
1678;DHT22;6034;46.864;15.216;2022-07-29T15:24:26;25.60;99.90
1678;DHT22;6034;46.864;15.216;2022-07-29T15:26:57;25.60;99.90
1678;DHT22;6034;46.864;15.216;2022-07-29T15:29:24;25.60;99.90
1678;DHT22;6034;46.864;15.216;2022-07-29T15:31:51;25.50;99.90
1678;DHT22;6034;46.864;15.216;2022-07-29T15:34:18;25.50;99.90
1678;DHT22;6034;46.864;15.216;2022-07-29T15:36:45;25.50;99.90
1678;DHT22;6034;46.864;15.216;2022-07-29T15:39:12;25.50;99.90
1678;DHT22;6034;46.864;15.216;2022-07-29T15:41:40;25.50;99.90
1678;DHT22;6034;46.864;15.216;2022-07-29T15:44:09;25.40;99.90
1678;DHT22;6034;46.864;15.216;2022-07-29T15:46:36;25.40;99.90
1678;DHT22;6034;46.864;15.216;2022-07-29T15:49:20;25.30;99.90
1678;DHT22;6034;46.864;15.216;2022-07-29T15:51:47;25.40;99.90
1678;DHT22;6034;46.864;15.216;2022-07-29T15:54:14;25.40;99.90
1678;DHT22;6034;46.864;15.216;2022-07-29T15:56:42;25.40;99.90
1678;DHT22;6034;46.864;15.216;2022-07-29T15:59:10;25.40;99.90
1678;DHT22;6034;46.864;15.216;2022-07-29T16:01:37;25.40;99.90
1678;DHT22;6034;46.864;15.216;2022-07-29T16:04:04;25.40;99.90
1678;DHT22;6034;46.864;15.216;2022-07-29T16:06:31;25.40;99.90
1678;DHT22;6034;46.864;15.216;2022-07-29T16:08:58;25.40;99.90
1678;DHT22;6034;46.864;15.216;2022-07-29T16:11:27;25.40;99.90
1678;DHT22;6034;46.864;15.216;2022-07-29T16:13:54;25.40;99.90
1678;DHT22;6034;46.864;15.216;2022-07-29T16:16:22;25.40;99.90
1678;DHT22;6034;46.864;15.216;2022-07-29T16:18:49;25.40;99.90
1678;DHT22;6034;46.864;15.216;2022-07-29T16:21:16;25.40;99.90
1678;DHT22;6034;46.864;15.216;2022-07-29T16:23:43;25.40;99.90
1678;DHT22;6034;46.864;15.216;2022-07-29T16:26:10;25.40;99.90
1678;DHT22;6034;46.864;15.216;2022-07-29T16:28:40;25.30;99.90
1678;DHT22;6034;46.864;15.216;2022-07-29T16:31:07;25.40;99.90
1678;DHT22;6034;46.864;15.216;2022-07-29T16:33:36;25.30;99.90
1678;DHT22;6034;46.864;15.216;2022-07-29T16:36:03;25.30;99.90
1678;DHT22;6034;46.864;15.216;2022-07-29T16:38:30;25.30;99.90
1678;DHT22;6034;46.864;15.216;2022-07-29T16:40:57;25.30;99.90
1678;DHT22;6034;46.864;15.216;2022-07-29T16:43:24;25.30;99.90
1678;DHT22;6034;46.864;15.216;2022-07-29T16:45:51;25.30;99.90
1678;DHT22;6034;46.864;15.216;2022-07-29T16:48:18;25.30;99.90
1678;DHT22;6034;46.864;15.216;2022-07-29T16:50:46;25.30;99.90
1678;DHT22;6034;46.864;15.216;2022-07-29T16:53:13;25.30;99.90
1678;DHT22;6034;46.864;15.216;2022-07-29T16:55:40;25.30;99.90
1678;DHT22;6034;46.864;15.216;2022-07-29T16:58:07;25.30;99.90
1678;DHT22;6034;46.864;15.216;2022-07-29T17:00:34;25.30;99.90
1678;DHT22;6034;46.864;15.216;2022-07-29T17:03:01;25.20;99.90
1678;DHT22;6034;46.864;15.216;2022-07-29T17:05:29;25.20;99.90
1678;DHT22;6034;46.864;15.216;2022-07-29T17:07:58;25.20;99.90
1678;DHT22;6034;46.864;15.216;2022-07-29T17:10:25;25.10;99.90
1678;DHT22;6034;46.864;15.216;2022-07-29T17:12:54;25.10;99.90
1678;DHT22;6034;46.864;15.216;2022-07-29T17:15:21;25.10;99.90
1678;DHT22;6034;46.864;15.216;2022-07-29T17:17:48;25.10;99.90
1678;DHT22;6034;46.864;15.216;2022-07-29T17:20:15;25.10;99.90
1678;DHT22;6034;46.864;15.216;2022-07-29T17:22:42;25.10;99.90
1678;DHT22;6034;46.864;15.216;2022-07-29T17:25:10;25.10;99.90
1678;DHT22;6034;46.864;15.216;2022-07-29T17:27:38;25.10;99.90
1678;DHT22;6034;46.864;15.216;2022-07-29T17:30:05;25.10;99.90
1678;DHT22;6034;46.864;15.216;2022-07-29T17:32:32;25.10;99.90
1678;DHT22;6034;46.864;15.216;2022-07-29T17:35:03;25.10;99.90
1678;DHT22;6034;46.864;15.216;2022-07-29T17:37:51;25.10;99.90
1678;DHT22;6034;46.864;15.216;2022-07-29T17:40:20;25.10;99.90
1678;DHT22;6034;46.864;15.216;2022-07-29T17:42:47;25.10;99.90
1678;DHT22;6034;46.864;15.216;2022-07-29T17:45:14;25.00;99.90
1678;DHT22;6034;46.864;15.216;2022-07-29T17:47:41;25.00;99.90
1678;DHT22;6034;46.864;15.216;2022-07-29T17:50:09;25.00;99.90
1678;DHT22;6034;46.864;15.216;2022-07-29T17:52:36;25.00;99.90
1678;DHT22;6034;46.864;15.216;2022-07-29T17:55:03;24.80;99.90
1678;DHT22;6034;46.864;15.216;2022-07-29T17:57:32;24.80;99.90
1678;DHT22;6034;46.864;15.216;2022-07-29T17:59:59;24.70;99.90
1678;DHT22;6034;46.864;15.216;2022-07-29T18:02:26;24.70;99.90
1678;DHT22;6034;46.864;15.216;2022-07-29T18:04:53;24.80;99.90
1678;DHT22;6034;46.864;15.216;2022-07-29T18:07:20;24.80;99.90
1678;DHT22;6034;46.864;15.216;2022-07-29T18:09:48;24.80;99.90
1678;DHT22;6034;46.864;15.216;2022-07-29T18:12:15;24.80;99.90
1678;DHT22;6034;46.864;15.216;2022-07-29T18:14:44;24.70;99.90
1678;DHT22;6034;46.864;15.216;2022-07-29T18:17:11;24.60;99.90
1678;DHT22;6034;46.864;15.216;2022-07-29T18:19:38;24.60;99.90
1678;DHT22;6034;46.864;15.216;2022-07-29T18:22:05;24.60;99.90
1678;DHT22;6034;46.864;15.216;2022-07-29T18:24:34;24.60;99.90
1678;DHT22;6034;46.864;15.216;2022-07-29T18:27:01;24.60;99.90
1678;DHT22;6034;46.864;15.216;2022-07-29T18:29:28;24.60;99.90
1678;DHT22;6034;46.864;15.216;2022-07-29T18:31:57;24.60;99.90
1678;DHT22;6034;46.864;15.216;2022-07-29T18:34:25;24.60;99.90
1678;DHT22;6034;46.864;15.216;2022-07-29T18:36:52;24.60;99.90
1678;DHT22;6034;46.864;15.216;2022-07-29T18:39:19;24.60;99.90
1678;DHT22;6034;46.864;15.216;2022-07-29T18:41:46;24.60;99.90
1678;DHT22;6034;46.864;15.216;2022-07-29T18:44:13;24.60;99.90
1678;DHT22;6034;46.864;15.216;2022-07-29T18:46:41;24.50;99.90
1678;DHT22;6034;46.864;15.216;2022-07-29T18:49:10;24.50;99.90
1678;DHT22;6034;46.864;15.216;2022-07-29T18:51:37;24.50;99.90
1678;DHT22;6034;46.864;15.216;2022-07-29T18:54:04;24.50;99.90
1678;DHT22;6034;46.864;15.216;2022-07-29T18:56:33;24.40;99.90
1678;DHT22;6034;46.864;15.216;2022-07-29T18:59:00;24.40;99.90
1678;DHT22;6034;46.864;15.216;2022-07-29T19:01:28;24.30;99.90
1678;DHT22;6034;46.864;15.216;2022-07-29T19:03:55;24.30;99.90
1678;DHT22;6034;46.864;15.216;2022-07-29T19:06:23;24.30;99.90
1678;DHT22;6034;46.864;15.216;2022-07-29T19:08:50;24.30;99.90
1678;DHT22;6034;46.864;15.216;2022-07-29T19:11:17;24.20;99.90
1678;DHT22;6034;46.864;15.216;2022-07-29T19:13:44;24.20;99.90
1678;DHT22;6034;46.864;15.216;2022-07-29T19:16:11;24.20;99.90
1678;DHT22;6034;46.864;15.216;2022-07-29T19:18:38;24.10;99.90
1678;DHT22;6034;46.864;15.216;2022-07-29T19:21:05;24.00;99.90
1678;DHT22;6034;46.864;15.216;2022-07-29T19:23:34;23.80;99.90
1678;DHT22;6034;46.864;15.216;2022-07-29T19:26:01;23.60;99.90
1678;DHT22;6034;46.864;15.216;2022-07-29T19:28:28;23.60;99.90
1678;DHT22;6034;46.864;15.216;2022-07-29T19:30:55;23.40;99.90
1678;DHT22;6034;46.864;15.216;2022-07-29T19:33:22;23.30;99.90
1678;DHT22;6034;46.864;15.216;2022-07-29T19:35:49;23.30;99.90
1678;DHT22;6034;46.864;15.216;2022-07-29T19:38:16;23.20;99.90
1678;DHT22;6034;46.864;15.216;2022-07-29T19:40:45;23.20;99.90
1678;DHT22;6034;46.864;15.216;2022-07-29T19:43:12;23.10;99.90
1678;DHT22;6034;46.864;15.216;2022-07-29T19:45:39;23.00;99.90
1678;DHT22;6034;46.864;15.216;2022-07-29T19:48:06;22.90;99.90
1678;DHT22;6034;46.864;15.216;2022-07-29T19:50:32;22.40;99.90
1678;DHT22;6034;46.864;15.216;2022-07-29T19:53:00;22.30;99.90
1678;DHT22;6034;46.864;15.216;2022-07-29T19:55:27;22.00;99.90
1678;DHT22;6034;46.864;15.216;2022-07-29T19:57:55;21.80;99.90
1678;DHT22;6034;46.864;15.216;2022-07-29T20:00:23;21.60;99.90
1678;DHT22;6034;46.864;15.216;2022-07-29T20:02:51;21.40;99.90
1678;DHT22;6034;46.864;15.216;2022-07-29T20:05:18;21.30;99.90
1678;DHT22;6034;46.864;15.216;2022-07-29T20:07:45;20.90;99.90
1678;DHT22;6034;46.864;15.216;2022-07-29T20:10:12;20.70;99.90
1678;DHT22;6034;46.864;15.216;2022-07-29T20:12:39;20.70;99.90
1678;DHT22;6034;46.864;15.216;2022-07-29T20:15:09;20.80;99.90
1678;DHT22;6034;46.864;15.216;2022-07-29T20:17:37;20.90;99.90
1678;DHT22;6034;46.864;15.216;2022-07-29T20:20:05;20.90;99.90
1678;DHT22;6034;46.864;15.216;2022-07-29T20:22:32;20.90;99.90
1678;DHT22;6034;46.864;15.216;2022-07-29T20:24:59;20.90;99.90
1678;DHT22;6034;46.864;15.216;2022-07-29T20:27:26;21.00;99.90
1678;DHT22;6034;46.864;15.216;2022-07-29T20:29:54;21.00;99.90
1678;DHT22;6034;46.864;15.216;2022-07-29T20:32:22;20.50;99.90
1678;DHT22;6034;46.864;15.216;2022-07-29T20:34:49;20.60;99.90
1678;DHT22;6034;46.864;15.216;2022-07-29T20:37:16;20.70;99.90
1678;DHT22;6034;46.864;15.216;2022-07-29T20:39:44;20.50;99.90
1678;DHT22;6034;46.864;15.216;2022-07-29T20:42:12;20.40;99.90
1678;DHT22;6034;46.864;15.216;2022-07-29T20:44:39;20.40;99.90
1678;DHT22;6034;46.864;15.216;2022-07-29T20:47:06;20.40;99.90
1678;DHT22;6034;46.864;15.216;2022-07-29T20:49:42;20.50;99.90
1678;DHT22;6034;46.864;15.216;2022-07-29T20:52:09;20.60;99.90
1678;DHT22;6034;46.864;15.216;2022-07-29T20:54:37;20.60;99.90
1678;DHT22;6034;46.864;15.216;2022-07-29T20:57:04;20.60;99.90
1678;DHT22;6034;46.864;15.216;2022-07-29T20:59:31;20.60;99.90
1678;DHT22;6034;46.864;15.216;2022-07-29T21:01:58;20.60;99.90
1678;DHT22;6034;46.864;15.216;2022-07-29T21:04:25;20.60;99.90